CYAW weather

Halifax / CFB Shearwater Heliport
Halifax, Nova Scotia, Canada

Public forecast

Using degrees Celsius for public forecast. Weather courtesy of forecast.io.

METAR (pilot weather report)

Report is more than 6 hours old.

Retrieved 2019/08/16 19:00 UTC (1 day ago):

CYAW 161900Z 10009KT 15SM FEW040 FEW080 SCT250 22/15 A3013 RMK CU1AC1CI3 DA917FT LAST OBS/NXT 191400 UTC SLP204

TAF (pilot weather forecast)

Forecast is more than 12 hours old.

Retrieved 2019/08/16 18:35 UTC (1 day ago):

TAF CYAW 161730Z 1618/1706 12012KT P6SM VCFG FEW003 SCT040 SCT080 BKN250 FM162200 13008KT P6SM VCFG SCT003 TEMPO 1622/1706 2SM BR VCFG BKN003 BECMG 1623/1701 VRB03KT RMK NXT FCST BY 170000Z